createdAt,value
2019-06-20T00:02:07.334Z,60.80
2019-06-20T00:04:36.569Z,61.00
2019-06-20T00:07:05.879Z,61.10
2019-06-20T00:09:35.179Z,61.30
2019-06-20T00:12:04.465Z,61.50
2019-06-20T00:14:33.713Z,61.80
2019-06-20T00:17:02.991Z,61.90
2019-06-20T00:19:32.277Z,62.00
2019-06-20T00:22:01.493Z,62.10
2019-06-20T00:24:30.776Z,62.30
2019-06-20T00:27:00.051Z,62.60
2019-06-20T00:29:29.311Z,62.50
2019-06-20T00:31:58.604Z,62.60
2019-06-20T00:34:27.847Z,62.80
2019-06-20T00:36:57.133Z,62.60
2019-06-20T00:39:26.412Z,62.70
2019-06-20T00:41:55.672Z,62.80
2019-06-20T00:44:25.026Z,62.80
2019-06-20T00:46:54.370Z,62.90
2019-06-20T00:49:23.814Z,62.90
2019-06-20T00:51:53.053Z,62.90
2019-06-20T00:54:22.507Z,63.00
2019-06-20T00:56:51.762Z,63.30
2019-06-20T00:59:21.158Z,63.10
2019-06-20T01:01:50.443Z,63.10
2019-06-20T01:04:19.695Z,63.20
2019-06-20T01:06:49.080Z,63.20
2019-06-20T01:09:18.355Z,63.20
2019-06-20T01:11:47.631Z,63.20
2019-06-20T01:14:16.863Z,63.30
2019-06-20T01:16:46.196Z,63.30
2019-06-20T01:19:15.446Z,63.40
2019-06-20T01:21:44.803Z,63.50
2019-06-20T01:24:14.051Z,63.50
2019-06-20T01:26:43.335Z,63.60
2019-06-20T01:29:12.824Z,63.70
2019-06-20T01:31:42.143Z,63.80
2019-06-20T01:34:11.466Z,63.90
2019-06-20T01:36:40.719Z,63.80
2019-06-20T01:39:09.966Z,63.80
2019-06-20T01:41:39.246Z,63.90
2019-06-20T01:44:08.501Z,64.00
2019-06-20T01:46:37.758Z,63.90
2019-06-20T01:49:07.130Z,63.80
2019-06-20T01:51:36.382Z,64.00
2019-06-20T01:54:05.767Z,64.10
2019-06-20T01:56:35.126Z,64.30
2019-06-20T01:59:04.450Z,64.20
2019-06-20T02:01:33.738Z,64.30
2019-06-20T02:04:03.039Z,64.40
2019-06-20T02:06:32.250Z,65.20
2019-06-20T02:09:01.561Z,64.40
2019-06-20T02:11:30.938Z,64.50
2019-06-20T02:14:07.393Z,64.60
2019-06-20T02:16:31.106Z,64.50
2019-06-20T02:19:00.341Z,64.50
2019-06-20T02:21:29.637Z,64.60
2019-06-20T02:23:58.874Z,64.70
2019-06-20T02:26:28.283Z,64.70
2019-06-20T02:28:57.630Z,64.80
2019-06-20T02:31:26.934Z,64.80
2019-06-20T02:33:56.163Z,64.80
2019-06-20T02:36:25.425Z,64.80
2019-06-20T02:38:54.683Z,64.80
2019-06-20T02:41:23.986Z,64.80
2019-06-20T02:43:53.342Z,64.80
2019-06-20T02:46:22.734Z,64.80
2019-06-20T02:48:52.027Z,64.90
2019-06-20T02:51:24.502Z,64.90
2019-06-20T02:53:54.181Z,64.90
2019-06-20T02:56:23.505Z,65.00
2019-06-20T02:58:52.812Z,65.00
2019-06-20T03:01:22.061Z,65.00
2019-06-20T03:03:51.369Z,65.00
2019-06-20T03:06:20.814Z,65.20
2019-06-20T03:08:50.094Z,65.20
2019-06-20T03:11:19.362Z,65.20
2019-06-20T03:13:48.641Z,65.30
2019-06-20T03:16:17.884Z,65.30
2019-06-20T03:18:47.186Z,65.20
2019-06-20T03:21:16.529Z,65.30
2019-06-20T03:23:45.781Z,65.30
2019-06-20T03:26:15.072Z,65.40
2019-06-20T03:28:44.337Z,65.50
2019-06-20T03:31:13.774Z,65.50
2019-06-20T03:33:43.014Z,65.40
2019-06-20T03:36:12.296Z,65.50
2019-06-20T03:38:41.557Z,65.60
2019-06-20T03:41:10.839Z,65.70
2019-06-20T03:43:40.139Z,65.60
2019-06-20T03:46:09.402Z,66.50
2019-06-20T03:48:38.679Z,65.60
2019-06-20T03:51:08.008Z,65.70
2019-06-20T03:53:37.259Z,65.70
2019-06-20T03:56:06.528Z,65.70
2019-06-20T03:58:36.183Z,65.70
2019-06-20T04:01:05.549Z,65.60
2019-06-20T04:03:34.836Z,65.60
2019-06-20T04:06:04.094Z,65.70
2019-06-20T04:08:33.353Z,65.50
2019-06-20T04:11:02.912Z,65.60
2019-06-20T04:13:32.343Z,66.50
2019-06-20T04:16:01.708Z,65.50
2019-06-20T04:18:31.026Z,65.40
2019-06-20T04:21:00.303Z,65.30
2019-06-20T04:23:29.568Z,65.30
2019-06-20T04:25:58.912Z,65.40
2019-06-20T04:28:28.146Z,65.30
2019-06-20T04:30:57.427Z,65.30
2019-06-20T04:33:26.745Z,65.30
2019-06-20T04:35:56.185Z,65.10
2019-06-20T04:38:25.463Z,65.10
2019-06-20T04:40:54.729Z,65.10
2019-06-20T04:43:24.071Z,64.90
2019-06-20T04:45:59.243Z,64.30
2019-06-20T04:48:28.547Z,64.20
2019-06-20T04:50:57.874Z,63.90
2019-06-20T04:53:27.229Z,63.70
2019-06-20T04:55:56.474Z,63.50
2019-06-20T04:58:25.787Z,63.30
2019-06-20T05:00:55.276Z,63.40
2019-06-20T05:03:24.570Z,63.30
2019-06-20T05:05:53.842Z,63.10
2019-06-20T05:08:23.211Z,63.00
2019-06-20T05:10:52.495Z,62.90
2019-06-20T05:13:21.848Z,62.90
2019-06-20T05:15:52.969Z,63.00
2019-06-20T05:18:22.044Z,63.10
2019-06-20T05:20:51.315Z,63.00
2019-06-20T05:23:20.686Z,63.70
2019-06-20T05:25:50.003Z,62.90
2019-06-20T05:28:19.340Z,63.60
2019-06-20T05:30:48.662Z,62.90
2019-06-20T05:33:18.026Z,62.90
2019-06-20T05:35:47.371Z,63.00
2019-06-20T05:38:16.640Z,63.10
2019-06-20T05:40:45.933Z,63.20
2019-06-20T05:43:15.216Z,63.10
2019-06-20T05:45:48.545Z,63.00
2019-06-20T05:48:15.568Z,62.70
2019-06-20T05:50:44.906Z,62.40
2019-06-20T05:53:14.386Z,62.20
2019-06-20T05:55:43.666Z,62.10
2019-06-20T05:58:12.930Z,62.20
2019-06-20T06:00:42.218Z,61.90
2019-06-20T06:03:13.680Z,61.60
2019-06-20T06:05:42.441Z,61.50
2019-06-20T06:08:11.801Z,61.40
2019-06-20T06:10:41.322Z,61.30
2019-06-20T06:13:10.711Z,61.20
2019-06-20T06:15:40.026Z,61.40
2019-06-20T06:18:09.279Z,61.60
2019-06-20T06:20:40.342Z,61.40
2019-06-20T06:23:09.637Z,61.10
2019-06-20T06:25:39.318Z,60.90
2019-06-20T06:28:12.112Z,60.60
2019-06-20T06:30:39.737Z,60.30
2019-06-20T06:33:09.037Z,60.10
2019-06-20T06:35:38.251Z,59.90
2019-06-20T06:38:07.489Z,59.80
2019-06-20T06:40:36.784Z,59.70
2019-06-20T06:43:06.064Z,59.60
2019-06-20T06:45:35.394Z,59.60
2019-06-20T06:48:04.682Z,59.50
2019-06-20T06:50:33.920Z,59.50
2019-06-20T06:53:03.200Z,59.60
2019-06-20T06:55:32.526Z,59.60
2019-06-20T06:58:01.821Z,59.60
2019-06-20T07:00:31.110Z,59.50
2019-06-20T07:03:00.393Z,59.90
2019-06-20T07:05:29.641Z,60.40
2019-06-20T07:07:58.934Z,60.60
2019-06-20T07:10:28.501Z,60.30
2019-06-20T07:12:57.791Z,60.10
2019-06-20T07:15:27.142Z,60.20
2019-06-20T07:17:56.437Z,60.00
2019-06-20T07:20:25.877Z,59.60
2019-06-20T07:22:55.320Z,59.10
2019-06-20T07:25:24.588Z,59.00
2019-06-20T07:27:53.864Z,58.70
2019-06-20T07:30:23.124Z,58.10
2019-06-20T07:32:52.530Z,57.80
2019-06-20T07:35:21.776Z,57.80
2019-06-20T07:37:51.161Z,57.70
2019-06-20T07:40:20.604Z,57.80
2019-06-20T07:42:49.845Z,58.50
2019-06-20T07:45:27.388Z,57.40
2019-06-20T07:47:56.541Z,57.50
2019-06-20T07:50:25.894Z,57.40
2019-06-20T07:53:01.974Z,57.40
2019-06-20T07:55:26.178Z,57.30
2019-06-20T07:57:55.425Z,57.00
2019-06-20T08:00:25.411Z,56.80
2019-06-20T08:02:54.679Z,56.50
2019-06-20T08:05:23.988Z,56.30
2019-06-20T08:07:53.237Z,56.20
2019-06-20T08:10:24.067Z,56.10
2019-06-20T08:12:53.407Z,56.00
2019-06-20T08:15:23.764Z,55.60
2019-06-20T08:17:52.993Z,54.90
2019-06-20T08:20:23.129Z,54.20
2019-06-20T08:22:52.431Z,54.00
2019-06-20T08:25:21.780Z,54.10
2019-06-20T08:27:51.319Z,54.00
2019-06-20T08:30:26.664Z,54.20
2019-06-20T08:32:57.567Z,54.10
2019-06-20T08:35:28.882Z,54.10
2019-06-20T08:37:59.281Z,54.20
2019-06-20T08:40:30.756Z,54.20
2019-06-20T08:43:00.224Z,54.00
2019-06-20T08:45:31.735Z,53.80
2019-06-20T08:48:02.447Z,53.70
2019-06-20T08:50:32.030Z,53.60
2019-06-20T08:53:01.756Z,53.40
2019-06-20T08:55:31.132Z,53.10
2019-06-20T08:58:01.622Z,52.60
2019-06-20T09:00:32.510Z,52.40
2019-06-20T09:05:32.063Z,52.00
2019-06-20T09:10:37.771Z,51.60
2019-06-20T09:13:08.577Z,51.50
2019-06-20T09:15:38.262Z,51.70
2019-06-20T09:18:08.090Z,51.70
2019-06-20T09:20:37.655Z,51.70
2019-06-20T09:23:06.941Z,52.30
2019-06-20T09:25:36.506Z,51.70
2019-06-20T09:28:06.509Z,51.50
2019-06-20T09:30:37.457Z,51.10
2019-06-20T09:33:07.087Z,51.20
2019-06-20T09:35:36.518Z,51.10
2019-06-20T09:38:05.911Z,51.20
2019-06-20T09:40:35.214Z,51.10
2019-06-20T09:43:04.546Z,50.90
2019-06-20T09:45:33.849Z,50.80
2019-06-20T09:48:03.242Z,50.80
2019-06-20T09:50:32.581Z,51.00
2019-06-20T09:53:01.838Z,50.70
2019-06-20T09:55:31.154Z,50.60
2019-06-20T09:58:00.463Z,50.50
2019-06-20T10:00:30.007Z,50.30
2019-06-20T10:02:59.252Z,50.10
2019-06-20T10:05:28.606Z,50.00
2019-06-20T10:07:57.889Z,50.00
2019-06-20T10:10:29.581Z,49.90
2019-06-20T10:12:58.987Z,50.30
2019-06-20T10:15:30.576Z,49.30
2019-06-20T10:18:00.088Z,48.80
2019-06-20T10:20:29.342Z,48.60
2019-06-20T10:22:58.651Z,48.30
2019-06-20T10:25:28.001Z,48.20
2019-06-20T10:27:57.836Z,48.40
2019-06-20T10:30:28.138Z,48.60
2019-06-20T10:32:57.860Z,48.60
2019-06-20T10:35:27.579Z,48.50
2019-06-20T10:37:57.290Z,48.50
2019-06-20T10:40:27.023Z,49.40
2019-06-20T10:42:56.880Z,47.60
2019-06-20T10:45:26.994Z,45.90
2019-06-20T10:47:56.387Z,44.60
2019-06-20T10:50:26.428Z,43.50
2019-06-20T10:52:55.826Z,42.70
2019-06-20T10:55:25.272Z,41.90
2019-06-20T10:57:54.551Z,41.40
2019-06-20T11:00:32.659Z,41.30
2019-06-20T11:02:56.603Z,41.20
2019-06-20T11:05:25.887Z,40.50
2019-06-20T11:07:55.211Z,39.40
2019-06-20T11:10:25.023Z,38.80
2019-06-20T11:12:56.173Z,38.50
2019-06-20T11:15:25.192Z,38.30
2019-06-20T11:17:56.585Z,38.20
2019-06-20T11:20:26.961Z,38.00
2019-06-20T11:22:56.389Z,38.20
2019-06-20T11:25:25.623Z,37.80
2019-06-20T11:27:54.874Z,37.40
2019-06-20T11:30:25.704Z,37.70
2019-06-20T11:32:54.963Z,37.50
2019-06-20T11:35:24.180Z,37.00
2019-06-20T11:37:53.471Z,36.80
2019-06-20T11:40:24.313Z,36.40
2019-06-20T11:42:53.583Z,36.10
2019-06-20T11:45:22.959Z,35.30
2019-06-20T11:47:52.239Z,34.20
2019-06-20T11:50:22.339Z,33.70
2019-06-20T11:52:51.654Z,33.60
2019-06-20T11:55:21.143Z,33.30
2019-06-20T11:57:50.450Z,33.00
2019-06-20T12:00:20.786Z,32.60
2019-06-20T12:02:50.326Z,32.70
2019-06-20T12:05:19.779Z,32.50
2019-06-20T12:07:50.005Z,31.80
2019-06-20T12:10:19.528Z,31.60
2019-06-20T12:12:49.172Z,31.30
2019-06-20T12:15:19.278Z,30.70
2019-06-20T12:17:49.303Z,30.20
2019-06-20T12:20:19.210Z,29.70
2019-06-20T12:22:50.529Z,29.30
2019-06-20T12:25:19.883Z,29.20
2019-06-20T12:27:49.750Z,29.00
2019-06-20T12:30:19.760Z,28.90
2019-06-20T12:32:49.425Z,28.80
2019-06-20T12:35:20.376Z,28.50
2019-06-20T12:37:50.067Z,28.80
2019-06-20T12:40:19.999Z,30.60
2019-06-20T12:42:49.433Z,32.30
2019-06-20T12:45:18.954Z,33.50
2019-06-20T12:47:48.212Z,33.90
2019-06-20T12:50:17.706Z,33.90
2019-06-20T12:52:47.642Z,34.30
2019-06-20T12:55:17.149Z,34.60
2019-06-20T12:57:46.603Z,35.10
2019-06-20T13:00:16.404Z,35.40
2019-06-20T13:02:45.715Z,36.00
2019-06-20T13:05:15.599Z,36.10
2019-06-20T13:07:46.267Z,36.60
2019-06-20T13:10:16.244Z,36.60
2019-06-20T13:12:46.340Z,36.80
2019-06-20T13:15:16.191Z,37.10
2019-06-20T13:17:46.760Z,37.10
2019-06-20T13:20:16.515Z,37.00
2019-06-20T13:22:46.582Z,37.10
2019-06-20T13:25:15.971Z,37.50
2019-06-20T13:27:45.696Z,37.90
2019-06-20T13:30:15.497Z,38.50
2019-06-20T13:32:45.369Z,39.10
2019-06-20T13:35:15.443Z,39.40
2019-06-20T13:37:45.744Z,39.80
2019-06-20T13:40:16.055Z,40.30
2019-06-20T13:42:46.144Z,40.00
2019-06-20T13:45:21.666Z,39.30
2019-06-20T13:47:50.920Z,38.50
2019-06-20T13:50:21.963Z,37.90
2019-06-20T13:52:51.581Z,37.70
2019-06-20T13:55:20.986Z,37.50
2019-06-20T13:57:50.369Z,37.00
2019-06-20T14:00:20.895Z,37.00
2019-06-20T14:02:51.548Z,37.00
2019-06-20T14:05:21.243Z,37.00
2019-06-20T14:07:55.407Z,36.20
2019-06-20T14:10:21.575Z,35.80
2019-06-20T14:12:50.845Z,35.40
2019-06-20T14:15:20.532Z,35.10
2019-06-20T14:17:51.343Z,34.80
2019-06-20T14:20:21.921Z,34.90
2019-06-20T14:22:52.227Z,35.10
2019-06-20T14:25:21.769Z,35.00
2019-06-20T14:27:51.536Z,35.20
2019-06-20T14:30:21.449Z,35.40
2019-06-20T14:32:51.405Z,35.90
2019-06-20T14:35:21.144Z,35.90
2019-06-20T14:37:51.792Z,35.20
2019-06-20T14:40:21.879Z,34.60
2019-06-20T14:42:52.342Z,34.30
2019-06-20T14:45:22.102Z,33.90
2019-06-20T14:47:52.503Z,33.80
2019-06-20T14:50:23.376Z,33.90
2019-06-20T14:52:53.979Z,33.50
2019-06-20T14:55:23.536Z,33.80
2019-06-20T14:57:54.476Z,34.70
2019-06-20T15:00:24.416Z,35.60
2019-06-20T15:02:57.856Z,36.50
2019-06-20T15:05:24.634Z,37.30
2019-06-20T15:07:55.798Z,37.90
2019-06-20T15:10:24.817Z,39.10
2019-06-20T15:12:55.653Z,38.80
2019-06-20T15:15:25.093Z,39.10
2019-06-20T15:17:56.310Z,39.70
2019-06-20T15:20:25.347Z,40.00
2019-06-20T15:22:54.838Z,40.30
2019-06-20T15:25:24.148Z,40.50
2019-06-20T15:27:55.265Z,40.80
2019-06-20T15:30:24.513Z,41.10
2019-06-20T15:33:05.868Z,41.90
2019-06-20T15:35:24.729Z,42.70
2019-06-20T15:37:55.491Z,43.50
2019-06-20T15:40:25.095Z,43.70
2019-06-20T15:42:55.352Z,44.00
2019-06-20T15:45:25.446Z,44.10
2019-06-20T15:47:54.800Z,44.00
2019-06-20T15:50:24.152Z,43.80
2019-06-20T15:52:53.466Z,43.50
2019-06-20T15:55:22.752Z,43.10
2019-06-20T15:57:54.213Z,43.10
2019-06-20T16:00:23.576Z,43.10
2019-06-20T16:02:53.037Z,43.20
2019-06-20T16:05:22.432Z,43.50
2019-06-20T16:07:51.721Z,43.60
2019-06-20T16:10:21.113Z,43.70
2019-06-20T16:12:50.381Z,43.60
2019-06-20T16:15:23.148Z,43.30
2019-06-20T16:17:52.449Z,43.00
2019-06-20T16:20:22.742Z,42.90
2019-06-20T16:22:52.052Z,43.00
2019-06-20T16:25:21.681Z,43.20
2019-06-20T16:27:51.028Z,43.30
2019-06-20T16:30:21.058Z,43.60
2019-06-20T16:32:50.365Z,43.90
2019-06-20T16:35:19.812Z,44.00
2019-06-20T16:37:49.167Z,43.90
2019-06-20T16:40:24.781Z,44.10
2019-06-20T16:42:54.177Z,44.00
2019-06-20T16:45:23.468Z,44.00
2019-06-20T16:47:52.761Z,43.90
2019-06-20T16:50:23.888Z,44.00
2019-06-20T16:52:53.206Z,44.00
2019-06-20T16:55:22.542Z,44.10
2019-06-20T16:57:51.829Z,44.30
2019-06-20T17:00:21.814Z,44.30
2019-06-20T17:02:51.069Z,44.50
2019-06-20T17:05:20.862Z,44.50
2019-06-20T17:07:50.114Z,44.70
2019-06-20T17:10:19.606Z,44.80
2019-06-20T17:12:48.945Z,44.90
2019-06-20T17:15:18.453Z,45.00
2019-06-20T17:17:47.794Z,45.10
2019-06-20T17:20:17.225Z,45.10
2019-06-20T17:22:46.579Z,45.10
2019-06-20T17:25:17.433Z,45.10
2019-06-20T17:27:46.746Z,45.20
2019-06-20T17:30:18.517Z,45.30
2019-06-20T17:32:48.005Z,45.40
2019-06-20T17:35:17.970Z,45.50
2019-06-20T17:37:47.326Z,45.50
2019-06-20T17:40:17.629Z,45.70
2019-06-20T17:42:46.987Z,45.90
2019-06-20T17:45:16.849Z,46.20
2019-06-20T17:47:46.348Z,46.50
2019-06-20T17:50:16.932Z,46.70
2019-06-20T17:52:46.403Z,46.90
2019-06-20T17:55:15.653Z,47.00
2019-06-20T17:57:44.979Z,47.10
2019-06-20T18:00:15.927Z,47.30
2019-06-20T18:02:45.259Z,47.40
2019-06-20T18:05:15.025Z,47.40
2019-06-20T18:07:44.344Z,47.50
2019-06-20T18:10:14.930Z,47.70
2019-06-20T18:12:44.258Z,47.70
2019-06-20T18:15:13.771Z,48.00
2019-06-20T18:17:43.092Z,48.10
2019-06-20T18:20:12.617Z,48.50
2019-06-20T18:22:41.947Z,49.30
2019-06-20T18:25:13.244Z,50.50
2019-06-20T18:27:42.611Z,51.50
2019-06-20T18:30:12.412Z,53.30
2019-06-20T18:32:41.720Z,57.90
2019-06-20T18:35:11.010Z,61.50
2019-06-20T18:37:40.538Z,63.50
2019-06-20T18:40:10.520Z,64.40
2019-06-20T18:42:39.776Z,64.90
2019-06-20T18:45:09.182Z,65.00
2019-06-20T18:47:38.472Z,64.80
2019-06-20T18:50:08.394Z,64.80
2019-06-20T18:52:51.190Z,65.10
2019-06-20T18:55:09.133Z,66.00
2019-06-20T18:57:38.448Z,65.80
2019-06-20T19:00:08.369Z,65.10
2019-06-20T19:02:37.624Z,64.60
2019-06-20T19:05:07.177Z,64.40
2019-06-20T19:07:37.075Z,64.50
2019-06-20T19:10:06.700Z,64.80
2019-06-20T19:12:35.976Z,64.80
2019-06-20T19:15:06.128Z,64.80
2019-06-20T19:17:35.503Z,64.70
2019-06-20T19:20:05.662Z,64.20
2019-06-20T19:22:34.979Z,64.00
2019-06-20T19:25:04.545Z,64.00
2019-06-20T19:27:45.680Z,64.10
2019-06-20T19:30:05.759Z,64.00
2019-06-20T19:32:35.040Z,63.90
2019-06-20T19:35:05.110Z,63.80
2019-06-20T19:37:34.392Z,63.50
2019-06-20T19:40:03.883Z,63.30
2019-06-20T19:42:33.279Z,63.10
2019-06-20T19:45:02.512Z,63.20
2019-06-20T19:47:31.914Z,63.20
2019-06-20T19:50:01.179Z,63.20
2019-06-20T19:52:30.489Z,63.40
2019-06-20T19:54:59.848Z,63.30
2019-06-20T19:57:29.252Z,63.30
2019-06-20T19:59:58.742Z,63.50
2019-06-20T20:02:28.107Z,63.60
2019-06-20T20:04:57.438Z,63.70
2019-06-20T20:07:26.756Z,63.80
2019-06-20T20:09:56.145Z,63.80
2019-06-20T20:12:25.418Z,64.00
2019-06-20T20:14:54.673Z,64.40
2019-06-20T20:17:24.045Z,64.70
2019-06-20T20:19:53.428Z,65.00
2019-06-20T20:22:22.757Z,65.10
2019-06-20T20:24:52.038Z,65.20
2019-06-20T20:27:21.337Z,65.30
2019-06-20T20:29:50.678Z,65.40
2019-06-20T20:32:19.953Z,65.60
2019-06-20T20:34:49.254Z,65.90
2019-06-20T20:37:18.541Z,66.40
2019-06-20T20:39:47.871Z,66.60
2019-06-20T20:42:17.947Z,66.80
2019-06-20T20:44:47.256Z,66.80
2019-06-20T20:47:16.541Z,66.80
2019-06-20T20:49:45.826Z,66.70
2019-06-20T20:52:15.222Z,66.70
2019-06-20T20:54:44.503Z,66.70
2019-06-20T20:57:13.821Z,66.40
2019-06-20T20:59:43.093Z,67.20
2019-06-20T21:02:14.419Z,67.30
2019-06-20T21:04:44.847Z,67.50
2019-06-20T21:07:23.397Z,67.50
2019-06-20T21:09:52.706Z,67.50
2019-06-20T21:12:22.000Z,67.50
2019-06-20T21:14:51.277Z,67.60
2019-06-20T21:17:20.596Z,67.60
2019-06-20T21:19:49.890Z,67.70
2019-06-20T21:22:19.331Z,67.80
2019-06-20T21:24:48.581Z,67.80
2019-06-20T21:27:17.912Z,67.80
2019-06-20T21:29:47.332Z,67.90
2019-06-20T21:32:16.616Z,67.90
2019-06-20T21:34:45.964Z,68.00
2019-06-20T21:37:15.253Z,68.30
2019-06-20T21:39:44.531Z,68.50
2019-06-20T21:42:13.863Z,68.50
2019-06-20T21:44:43.121Z,68.60
2019-06-20T21:47:12.416Z,69.30
2019-06-20T21:49:41.702Z,68.60
2019-06-20T21:52:11.027Z,68.70
2019-06-20T21:54:40.389Z,69.00
2019-06-20T21:57:09.691Z,69.20
2019-06-20T21:59:38.997Z,69.50
2019-06-20T22:02:08.574Z,69.60
2019-06-20T22:04:50.930Z,69.60
2019-06-20T22:07:08.798Z,69.70
2019-06-20T22:09:38.146Z,69.60
2019-06-20T22:12:07.478Z,69.70
2019-06-20T22:14:36.740Z,69.80
2019-06-20T22:17:06.056Z,69.60
2019-06-20T22:19:35.352Z,69.20
2019-06-20T22:22:05.024Z,69.30
2019-06-20T22:24:34.314Z,69.40
2019-06-20T22:27:03.574Z,69.40
2019-06-20T22:29:32.950Z,69.40
2019-06-20T22:32:02.295Z,69.60
2019-06-20T22:34:31.886Z,69.80
2019-06-20T22:37:01.203Z,69.80
2019-06-20T22:39:30.487Z,69.70
2019-06-20T22:41:59.838Z,69.60
2019-06-20T22:44:29.226Z,69.90
2019-06-20T22:46:58.511Z,70.20
2019-06-20T22:49:27.887Z,70.50
2019-06-20T22:51:57.199Z,70.60
2019-06-20T22:54:26.457Z,70.40
2019-06-20T22:56:55.757Z,70.20
2019-06-20T22:59:25.029Z,70.00
2019-06-20T23:01:54.361Z,69.80
2019-06-20T23:04:23.657Z,69.80
2019-06-20T23:06:56.681Z,69.90
2019-06-20T23:09:27.173Z,69.90
2019-06-20T23:11:54.829Z,69.80
2019-06-20T23:14:24.261Z,69.70
2019-06-20T23:16:53.565Z,69.50
2019-06-20T23:19:22.882Z,69.20
2019-06-20T23:21:52.317Z,69.20
2019-06-20T23:24:21.664Z,69.30
2019-06-20T23:26:51.873Z,69.30
2019-06-20T23:29:23.941Z,69.20
2019-06-20T23:31:54.452Z,69.20
2019-06-20T23:34:23.919Z,70.00
2019-06-20T23:36:53.261Z,69.20
2019-06-20T23:39:22.584Z,69.20
2019-06-20T23:41:51.938Z,69.30
2019-06-20T23:44:21.245Z,69.10
2019-06-20T23:46:50.602Z,69.00
2019-06-20T23:49:19.919Z,69.10
2019-06-20T23:51:55.013Z,69.20
2019-06-20T23:54:24.321Z,69.20
2019-06-20T23:56:53.613Z,68.80
2019-06-20T23:59:22.900Z,68.80
